Portada
METAR-TAF:

METAR-TAF

Aeroports :

Luganville, Illa Espíritu Santo, Vanuatu

latitud: 15-31S, longitud: 167-13E, altitud: 41 m

Observació

L'informe es va fer fa 22 minuts, a les 16:00 UTC
Vent 3 kt del Sud/Sud-Oest
Temperatura 24°C
Humitat 94%
Pressió 1010 hPa

METAR: NVSS 161600Z AUTO 20003KT //// // NCD 24/23 Q1010

Hora: 03:22 (16:22 UTC)

Pronòstic

L'informe es va fer fa 5 hores i 22 minuts, a les 11:00 UTC
Pronòstic vàlid del 16 a les 12 UTC al 17 a les 12 UTC
Vent 2 kt amb direcció variable
Visibilitat: 9000 m
Núvols disperses a una alçada de 2000 ft
Cel ennuvolat a una alçada de 4000 ft
Cel ennuvolat a una alçada de 1800 ft
Cel cobert a una alçada de 3800 ft
xàfecs de pluja,

TAF: NVSS 161100Z 1612/1712 VRB02KT 9999 SCT020 BKN040 INTER 1612/1618 9000 SHRA BKN018 OVC038

Observacions i pronòstics meteorològics de més de 4000 aeroports (METAR i TAF).

Les estacions disponibles són els punts grocs i vermells al mapa.

Posi el ratolí al punt desitjat per veure el nom de l'estació.

Feu clic per veure les observacions i els pronòstics meteorològics.

Per canviar el mapa: feu clic els botons verds amb una creu de color negre per apropar; al botó verd amb un guió per allunyar la imatge; o en les fletxes verdes per a mapes adjacents.


METAR-TAF: